createdAt,value
2023-03-20T00:01:36.436Z,2.77
2023-03-20T00:04:41.962Z,2.70
2023-03-20T00:07:47.800Z,3.10
2023-03-20T00:10:53.117Z,3.17
2023-03-20T00:14:01.049Z,3.10
2023-03-20T00:17:11.732Z,3.20
2023-03-20T00:20:18.205Z,3.10
2023-03-20T00:23:23.296Z,3.30
2023-03-20T00:26:30.075Z,2.90
2023-03-20T00:29:36.781Z,3.37
2023-03-20T00:32:42.204Z,2.90
2023-03-20T00:35:49.626Z,3.60
2023-03-20T00:38:55.153Z,3.23
2023-03-20T00:42:02.118Z,3.20
2023-03-20T00:45:13.840Z,3.50
2023-03-20T00:48:18.839Z,3.60
2023-03-20T00:51:24.019Z,3.30
2023-03-20T00:54:31.000Z,3.33
2023-03-20T00:57:44.378Z,3.20
2023-03-20T01:00:51.677Z,3.17
2023-03-20T01:03:56.823Z,3.40
2023-03-20T01:07:02.205Z,3.17
2023-03-20T01:10:08.669Z,3.03
2023-03-20T01:13:22.032Z,3.00
2023-03-20T01:16:29.466Z,2.80
2023-03-20T01:19:34.549Z,3.10
2023-03-20T01:22:40.817Z,3.20
2023-03-20T01:25:45.990Z,3.30
2023-03-20T01:28:51.341Z,2.93
2023-03-20T01:31:58.960Z,2.93
2023-03-20T01:35:05.891Z,3.10
2023-03-20T01:38:15.539Z,3.23
2023-03-20T01:41:21.623Z,3.23
2023-03-20T01:44:29.869Z,3.07
2023-03-20T01:47:38.250Z,2.63
2023-03-20T01:50:43.370Z,3.03
2023-03-20T01:53:55.191Z,2.90
2023-03-20T01:57:04.656Z,2.77
2023-03-20T02:00:15.704Z,2.70
2023-03-20T02:03:23.475Z,2.90
2023-03-20T02:06:51.994Z,2.80
2023-03-20T02:10:05.381Z,2.73
2023-03-20T02:13:33.735Z,2.50
2023-03-20T02:16:38.967Z,2.80
2023-03-20T02:19:57.538Z,2.60
2023-03-20T02:23:36.056Z,2.83
2023-03-20T02:26:51.682Z,2.70
2023-03-20T02:30:25.864Z,3.00
2023-03-20T02:34:10.029Z,2.77
2023-03-20T02:37:50.298Z,2.90
2023-03-20T02:41:03.294Z,3.00
2023-03-20T02:44:13.223Z,2.90
2023-03-20T02:47:24.120Z,2.60
2023-03-20T02:50:35.017Z,2.73
2023-03-20T02:53:52.985Z,2.83
2023-03-20T02:57:03.078Z,3.30
2023-03-20T03:00:13.866Z,3.20
2023-03-20T03:03:22.208Z,3.13
2023-03-20T03:06:29.824Z,2.93
2023-03-20T03:09:38.408Z,3.30
2023-03-20T03:12:46.070Z,3.27
2023-03-20T03:15:53.665Z,3.40
2023-03-20T03:19:05.216Z,3.27
2023-03-20T03:22:12.309Z,3.07
2023-03-20T03:25:19.258Z,3.50
2023-03-20T03:28:31.540Z,3.73
2023-03-20T03:31:37.368Z,3.53
2023-03-20T03:34:42.861Z,3.90
2023-03-20T03:37:55.000Z,4.17
2023-03-20T03:41:10.711Z,3.73
2023-03-20T03:44:19.462Z,4.37
2023-03-20T03:47:27.131Z,3.97
2023-03-20T03:50:34.700Z,3.53
2023-03-20T03:53:42.729Z,3.90
2023-03-20T03:56:51.166Z,3.67
2023-03-20T03:59:57.358Z,3.40
2023-03-20T04:03:02.522Z,3.17
2023-03-20T04:06:08.470Z,2.70
2023-03-20T04:09:13.638Z,3.03
2023-03-20T04:12:34.356Z,3.30
2023-03-20T04:15:39.940Z,3.07
2023-03-20T04:18:47.293Z,3.00
2023-03-20T04:21:55.324Z,2.50
2023-03-20T04:25:00.871Z,2.67
2023-03-20T04:28:08.300Z,2.40
2023-03-20T04:31:29.846Z,2.53
2023-03-20T04:34:48.053Z,2.70
2023-03-20T04:38:23.255Z,2.50
2023-03-20T04:41:31.090Z,2.53
2023-03-20T04:44:38.189Z,2.20
2023-03-20T04:47:43.413Z,2.30
2023-03-20T04:50:51.103Z,2.13
2023-03-20T04:54:01.344Z,2.20
2023-03-20T04:57:06.624Z,2.30
2023-03-20T05:00:17.059Z,2.40
2023-03-20T05:03:24.172Z,2.20
2023-03-20T05:06:30.320Z,2.73
2023-03-20T05:09:36.485Z,2.80
2023-03-20T05:12:43.501Z,2.40
2023-03-20T05:15:53.270Z,2.37
2023-03-20T05:19:22.051Z,3.07
2023-03-20T05:22:51.640Z,2.70
2023-03-20T05:26:14.054Z,2.60
2023-03-20T05:29:42.209Z,3.03
2023-03-20T05:32:58.475Z,3.40
2023-03-20T05:36:07.549Z,3.30
2023-03-20T05:39:31.644Z,3.40
2023-03-20T05:42:51.257Z,3.70
2023-03-20T05:46:06.701Z,3.50
2023-03-20T05:49:13.162Z,3.70
2023-03-20T05:52:27.455Z,4.40
2023-03-20T05:55:57.044Z,4.03
2023-03-20T05:59:21.793Z,4.07
2023-03-20T06:02:50.113Z,3.80
2023-03-20T06:06:22.709Z,4.10
2023-03-20T06:09:29.919Z,4.43
2023-03-20T06:12:37.411Z,5.07
2023-03-20T06:15:42.959Z,5.43
2023-03-20T06:18:53.350Z,5.40
2023-03-20T06:22:00.229Z,5.37
2023-03-20T06:25:05.841Z,5.50
2023-03-20T06:28:16.986Z,5.70
2023-03-20T06:31:23.366Z,6.40
2023-03-20T06:34:28.626Z,6.13
2023-03-20T06:37:37.025Z,6.43
2023-03-20T06:40:47.965Z,6.83
2023-03-20T06:43:55.999Z,6.73
2023-03-20T06:47:06.449Z,7.27
2023-03-20T06:50:14.340Z,7.37
2023-03-20T06:53:21.142Z,7.67
2023-03-20T06:56:35.286Z,7.20
2023-03-20T06:59:40.736Z,7.40
2023-03-20T07:02:46.033Z,7.87
2023-03-20T07:05:53.677Z,7.83
2023-03-20T07:09:02.689Z,7.13
2023-03-20T07:12:14.571Z,6.83
2023-03-20T07:15:21.401Z,7.10
2023-03-20T07:18:27.940Z,8.23
2023-03-20T07:21:34.022Z,7.50
2023-03-20T07:24:41.729Z,8.17
2023-03-20T07:27:50.913Z,8.10
2023-03-20T07:30:59.667Z,7.57
2023-03-20T07:34:04.953Z,7.37
2023-03-20T07:37:12.263Z,7.67
2023-03-20T07:40:21.108Z,7.63
2023-03-20T07:43:35.336Z,8.03
2023-03-20T07:47:13.636Z,8.00
2023-03-20T07:50:19.385Z,7.53
2023-03-20T07:53:24.528Z,8.13
2023-03-20T07:56:30.966Z,8.02
2023-03-20T07:59:36.333Z,7.57
2023-03-20T08:02:41.524Z,8.23
2023-03-20T08:05:47.603Z,7.97
2023-03-20T08:08:53.508Z,7.17
2023-03-20T08:12:00.122Z,8.40
2023-03-20T08:15:05.939Z,8.23
2023-03-20T08:18:12.552Z,8.85
2023-03-20T08:21:17.883Z,8.90
2023-03-20T08:24:23.401Z,8.90
2023-03-20T08:27:29.940Z,8.82
2023-03-20T08:30:35.091Z,10.10
2023-03-20T08:33:40.229Z,10.70
2023-03-20T08:36:45.862Z,10.27
2023-03-20T08:39:51.065Z,10.52
2023-03-20T08:42:57.680Z,9.18
2023-03-20T08:46:02.774Z,9.82
2023-03-20T08:49:08.449Z,10.85
2023-03-20T08:52:13.526Z,10.45
2023-03-20T08:55:20.003Z,10.02
2023-03-20T08:58:26.554Z,9.57
2023-03-20T09:01:47.902Z,10.32
2023-03-20T09:04:53.735Z,9.20
2023-03-20T09:07:58.492Z,9.88
2023-03-20T09:11:03.937Z,9.45
2023-03-20T09:14:10.755Z,9.20
2023-03-20T09:17:16.146Z,8.70
2023-03-20T09:20:21.439Z,9.15
2023-03-20T09:23:26.874Z,8.98
2023-03-20T09:26:32.055Z,9.00
2023-03-20T09:29:38.802Z,9.30
2023-03-20T09:32:43.937Z,9.55
2023-03-20T09:35:49.086Z,9.35
2023-03-20T09:38:54.256Z,10.80
2023-03-20T09:42:01.865Z,9.18
2023-03-20T09:45:13.015Z,9.82
2023-03-20T09:48:24.655Z,9.43
2023-03-20T09:51:33.791Z,9.63
2023-03-20T09:54:53.736Z,9.65
2023-03-20T09:58:03.693Z,9.98
2023-03-20T10:01:15.444Z,9.93
2023-03-20T10:04:20.700Z,9.55
2023-03-20T10:07:27.359Z,9.30
2023-03-20T10:10:40.833Z,9.77
2023-03-20T10:13:57.040Z,9.57
2023-03-20T10:17:14.583Z,9.32
2023-03-20T10:20:26.683Z,10.15
2023-03-20T10:23:37.575Z,9.60
2023-03-20T10:26:42.909Z,9.88
2023-03-20T10:29:56.326Z,10.93
2023-03-20T10:33:13.189Z,10.52
2023-03-20T10:36:30.870Z,10.52
2023-03-20T10:39:50.353Z,9.57
2023-03-20T10:42:58.925Z,10.48
2023-03-20T10:46:06.280Z,9.85
2023-03-20T10:49:18.625Z,11.10
2023-03-20T10:52:27.581Z,10.68
2023-03-20T10:55:36.272Z,10.65
2023-03-20T10:58:43.258Z,10.00
2023-03-20T11:01:48.391Z,9.95
2023-03-20T11:04:54.874Z,10.52
2023-03-20T11:08:05.158Z,9.93
2023-03-20T11:11:10.814Z,10.63
2023-03-20T11:14:21.106Z,10.38
2023-03-20T11:17:31.126Z,9.98
2023-03-20T11:20:41.592Z,9.82
2023-03-20T11:23:46.879Z,9.82
2023-03-20T11:26:53.716Z,10.23
2023-03-20T11:30:01.482Z,10.60
2023-03-20T11:33:08.819Z,10.13
2023-03-20T11:36:25.891Z,10.23
2023-03-20T11:39:34.156Z,9.93
2023-03-20T11:42:39.367Z,9.75
2023-03-20T11:45:46.643Z,10.38
2023-03-20T11:49:06.025Z,10.50
2023-03-20T11:52:17.034Z,9.55
2023-03-20T11:55:28.375Z,8.95
2023-03-20T11:58:33.797Z,10.20
2023-03-20T12:01:44.778Z,9.38
2023-03-20T12:04:49.844Z,9.65
2023-03-20T12:07:58.338Z,9.70
2023-03-20T12:11:11.010Z,9.88
2023-03-20T12:14:23.897Z,10.13
2023-03-20T12:17:36.450Z,9.85
2023-03-20T12:20:45.253Z,9.73
2023-03-20T12:23:54.680Z,10.52
2023-03-20T12:27:08.074Z,9.88
2023-03-20T12:30:17.084Z,9.55
2023-03-20T12:33:27.333Z,9.93
2023-03-20T12:36:36.064Z,10.23
2023-03-20T12:39:49.853Z,9.75
2023-03-20T12:43:03.013Z,10.38
2023-03-20T12:46:13.892Z,9.63
2023-03-20T12:49:27.925Z,9.82
2023-03-20T12:52:39.421Z,8.80
2023-03-20T12:55:54.804Z,9.90
2023-03-20T12:59:03.261Z,9.30
2023-03-20T13:02:27.705Z,9.48
2023-03-20T13:05:44.326Z,9.40
2023-03-20T13:09:02.630Z,9.80
2023-03-20T13:12:18.105Z,9.50
2023-03-20T13:15:35.657Z,9.45
2023-03-20T13:18:50.527Z,9.20
2023-03-20T13:22:00.067Z,7.65
2023-03-20T13:25:11.907Z,6.95
2023-03-20T13:28:24.058Z,4.72
2023-03-20T13:31:39.111Z,4.65
2023-03-20T13:34:55.872Z,4.05
2023-03-20T13:38:03.528Z,3.88
2023-03-20T13:41:10.125Z,3.58
2023-03-20T13:44:21.223Z,3.28
2023-03-20T13:47:28.555Z,3.20
2023-03-20T13:50:43.944Z,3.42
2023-03-20T13:54:01.326Z,3.38
2023-03-20T13:57:13.925Z,3.10
2023-03-20T14:00:28.458Z,2.85
2023-03-20T14:03:34.926Z,2.78
2023-03-20T14:06:50.844Z,2.70
2023-03-20T14:09:57.461Z,2.80
2023-03-20T14:13:04.646Z,2.88
2023-03-20T14:16:12.852Z,2.58
2023-03-20T14:19:20.976Z,2.17
2023-03-20T14:22:30.355Z,1.70
2023-03-20T14:25:40.416Z,1.30
2023-03-20T14:28:50.633Z,1.10
2023-03-20T14:32:06.195Z,1.30
2023-03-20T14:35:26.091Z,1.08
2023-03-20T14:38:34.277Z,2.30
2023-03-20T14:41:49.552Z,1.10
2023-03-20T14:45:26.433Z,0.70
2023-03-20T14:48:37.731Z,0.60
2023-03-20T14:51:46.007Z,0.82
2023-03-20T14:54:54.828Z,0.77
2023-03-20T14:58:03.726Z,0.70
2023-03-20T15:01:10.547Z,0.65
2023-03-20T15:04:33.094Z,0.90
2023-03-20T15:07:40.079Z,0.70
2023-03-20T15:10:48.525Z,1.90
2023-03-20T15:13:54.589Z,0.70
2023-03-20T15:17:01.233Z,0.70
2023-03-20T15:20:15.314Z,0.77
2023-03-20T15:23:20.742Z,0.70
2023-03-20T15:26:26.425Z,0.63
2023-03-20T15:29:32.606Z,0.80
2023-03-20T15:32:38.374Z,0.67
2023-03-20T15:35:46.013Z,0.60
2023-03-20T15:38:51.820Z,0.70
2023-03-20T15:41:59.049Z,0.90
2023-03-20T15:45:14.741Z,0.60
2023-03-20T15:48:22.064Z,0.80
2023-03-20T15:51:30.235Z,0.60
2023-03-20T15:54:37.506Z,0.60
2023-03-20T15:57:45.035Z,0.60
2023-03-20T16:00:50.867Z,0.67
2023-03-20T16:04:00.183Z,0.50
2023-03-20T16:07:07.110Z,0.60
2023-03-20T16:10:19.812Z,0.50
2023-03-20T16:13:29.730Z,2.10
2023-03-20T16:16:39.123Z,0.73
2023-03-20T16:19:44.932Z,0.70
2023-03-20T16:22:52.900Z,0.80
2023-03-20T16:26:00.221Z,1.10
2023-03-20T16:29:05.421Z,1.57
2023-03-20T16:32:27.009Z,1.00
2023-03-20T16:35:38.450Z,0.80
2023-03-20T16:38:56.427Z,0.70
2023-03-20T16:42:12.708Z,0.70
2023-03-20T16:45:26.453Z,0.90
2023-03-20T16:48:37.660Z,0.70
2023-03-20T16:51:45.566Z,1.10
2023-03-20T16:54:52.024Z,0.80
2023-03-20T16:57:59.647Z,0.60
2023-03-20T17:01:06.290Z,0.70
2023-03-20T17:04:19.423Z,0.80
2023-03-20T17:07:28.131Z,0.80
2023-03-20T17:10:34.888Z,0.90
2023-03-20T17:13:41.331Z,0.80
2023-03-20T17:16:46.483Z,0.90
2023-03-20T17:19:52.040Z,0.90
2023-03-20T17:22:57.392Z,0.90
2023-03-20T17:26:04.180Z,0.70
2023-03-20T17:29:10.862Z,1.00
2023-03-20T17:32:17.828Z,1.20
2023-03-20T17:35:23.162Z,0.80
2023-03-20T17:38:28.472Z,0.90
2023-03-20T17:41:35.012Z,1.00
2023-03-20T17:44:40.114Z,1.00
2023-03-20T17:47:46.461Z,1.00
2023-03-20T17:50:52.174Z,1.10
2023-03-20T17:53:58.073Z,0.73
2023-03-20T17:57:04.807Z,0.83
2023-03-20T18:00:15.118Z,0.80
2023-03-20T18:03:20.620Z,1.00
2023-03-20T18:06:28.260Z,0.90
2023-03-20T18:09:33.348Z,1.00
2023-03-20T18:12:39.896Z,0.80
2023-03-20T18:15:47.630Z,0.90
2023-03-20T18:18:53.147Z,1.30
2023-03-20T18:21:59.031Z,1.97
2023-03-20T18:25:04.765Z,1.40
2023-03-20T18:28:20.776Z,1.03
2023-03-20T18:31:25.987Z,1.07
2023-03-20T18:34:31.833Z,1.10
2023-03-20T18:37:36.997Z,0.97
2023-03-20T18:40:43.843Z,1.10
2023-03-20T18:43:50.862Z,1.50
2023-03-20T18:46:55.957Z,1.40
2023-03-20T18:50:01.186Z,1.40
2023-03-20T18:53:07.259Z,3.33
2023-03-20T18:56:15.783Z,2.10
2023-03-20T18:59:22.757Z,1.40
2023-03-20T19:02:27.872Z,1.10
2023-03-20T19:05:33.177Z,1.30
2023-03-20T19:08:38.930Z,1.30
2023-03-20T19:11:44.418Z,1.20
2023-03-20T19:14:50.890Z,1.20
2023-03-20T19:17:56.552Z,1.00
2023-03-20T19:21:01.855Z,1.10
2023-03-20T19:24:08.250Z,0.90
2023-03-20T19:27:17.767Z,0.90
2023-03-20T19:30:30.115Z,0.93
2023-03-20T19:33:35.459Z,0.90
2023-03-20T19:36:40.765Z,1.00
2023-03-20T19:39:45.933Z,0.80
2023-03-20T19:43:02.009Z,0.90
2023-03-20T19:46:18.649Z,1.03
2023-03-20T19:49:33.099Z,0.90
2023-03-20T19:52:38.627Z,1.40
2023-03-20T19:55:44.834Z,1.10
2023-03-20T19:58:50.089Z,1.40
2023-03-20T20:01:56.980Z,1.07
2023-03-20T20:05:02.182Z,1.00
2023-03-20T20:08:26.147Z,1.00
2023-03-20T20:11:34.373Z,1.17
2023-03-20T20:14:39.417Z,0.93
2023-03-20T20:17:45.998Z,1.00
2023-03-20T20:24:17.192Z,0.97
2023-03-20T20:27:22.314Z,1.00
2023-03-20T20:30:27.471Z,1.00
2023-03-20T20:33:36.847Z,1.10
2023-03-20T20:37:30.539Z,1.10
2023-03-20T20:40:08.394Z,1.17
2023-03-20T20:43:39.017Z,0.87
2023-03-20T20:46:39.606Z,1.00
2023-03-20T20:49:48.166Z,0.93
2023-03-20T20:52:53.594Z,0.90
2023-03-20T20:55:58.686Z,0.87
2023-03-20T20:59:03.926Z,1.00
2023-03-20T21:02:11.943Z,0.90
2023-03-20T21:05:19.730Z,0.90
2023-03-20T21:08:25.434Z,0.90
2023-03-20T21:11:31.112Z,0.77
2023-03-20T21:14:36.283Z,0.93
2023-03-20T21:17:53.882Z,0.90
2023-03-20T21:21:11.741Z,1.00
2023-03-20T21:24:31.574Z,1.10
2023-03-20T21:27:38.148Z,1.10
2023-03-20T21:31:08.897Z,0.80
2023-03-20T21:34:08.360Z,0.90
2023-03-20T21:38:13.110Z,0.80
2023-03-20T21:40:42.031Z,1.03
2023-03-20T21:43:47.765Z,0.90
2023-03-20T21:50:49.496Z,1.00
2023-03-20T21:54:46.089Z,0.87
2023-03-20T22:05:01.406Z,1.00
2023-03-20T22:08:03.376Z,1.07
2023-03-20T22:18:21.669Z,1.00
2023-03-20T22:25:18.471Z,1.10
2023-03-20T22:28:56.374Z,1.00
2023-03-20T22:35:40.745Z,1.00
2023-03-20T22:39:12.661Z,1.07
2023-03-20T22:45:12.868Z,1.13
2023-03-20T22:48:18.200Z,1.10
2023-03-20T22:51:32.607Z,1.10
2023-03-20T22:54:39.458Z,1.40
2023-03-20T22:57:59.811Z,1.27
2023-03-20T23:01:13.645Z,1.50
2023-03-20T23:04:18.886Z,1.50
2023-03-20T23:07:23.996Z,1.40
2023-03-20T23:10:29.176Z,1.50
2023-03-20T23:13:34.292Z,1.40
2023-03-20T23:16:41.807Z,1.70
2023-03-20T23:19:51.994Z,1.73
2023-03-20T23:22:59.387Z,2.00
2023-03-20T23:26:06.257Z,2.20
2023-03-20T23:29:11.768Z,2.40
2023-03-20T23:32:18.295Z,2.40
2023-03-20T23:35:23.642Z,2.53
2023-03-20T23:38:28.820Z,2.57
2023-03-20T23:42:04.613Z,2.87
2023-03-20T23:45:07.147Z,3.10
2023-03-20T23:48:20.477Z,2.70
2023-03-20T23:51:25.918Z,3.50
2023-03-20T23:54:31.079Z,3.27
2023-03-20T23:57:36.136Z,3.50
